sensor_id;sensor_type;location;lat;lon;timestamp;P1;durP1;ratioP1;P2;durP2;ratioP2
23866;SDS011;12114;53.404;-1.502;2023-03-30T00:00:48;2.42;;;1.25;;
23866;SDS011;12114;53.404;-1.502;2023-03-30T00:03:32;1.55;;;1.10;;
23866;SDS011;12114;53.404;-1.502;2023-03-30T00:06:16;1.98;;;1.42;;
23866;SDS011;12114;53.404;-1.502;2023-03-30T00:09:06;1.50;;;1.10;;
23866;SDS011;12114;53.404;-1.502;2023-03-30T00:11:50;1.52;;;0.93;;
23866;SDS011;12114;53.404;-1.502;2023-03-30T00:14:34;1.60;;;0.95;;
23866;SDS011;12114;53.404;-1.502;2023-03-30T00:17:20;2.72;;;1.20;;
23866;SDS011;12114;53.404;-1.502;2023-03-30T00:20:04;2.78;;;1.00;;
23866;SDS011;12114;53.404;-1.502;2023-03-30T00:22:54;1.50;;;0.90;;
23866;SDS011;12114;53.404;-1.502;2023-03-30T00:25:38;1.48;;;0.77;;
23866;SDS011;12114;53.404;-1.502;2023-03-30T00:28:22;1.75;;;0.80;;
23866;SDS011;12114;53.404;-1.502;2023-03-30T00:31:07;1.25;;;0.60;;
23866;SDS011;12114;53.404;-1.502;2023-03-30T00:36:37;1.42;;;0.70;;
23866;SDS011;12114;53.404;-1.502;2023-03-30T00:39:21;1.58;;;0.80;;
23866;SDS011;12114;53.404;-1.502;2023-03-30T00:42:05;1.83;;;0.80;;
23866;SDS011;12114;53.404;-1.502;2023-03-30T00:45:12;0.85;;;0.70;;
23866;SDS011;12114;53.404;-1.502;2023-03-30T00:50:59;1.20;;;0.77;;
23866;SDS011;12114;53.404;-1.502;2023-03-30T00:53:47;1.45;;;0.70;;
23866;SDS011;12114;53.404;-1.502;2023-03-30T00:56:33;0.60;;;0.60;;
23866;SDS011;12114;53.404;-1.502;2023-03-30T00:59:18;0.75;;;0.70;;
23866;SDS011;12114;53.404;-1.502;2023-03-30T01:02:02;0.98;;;0.60;;
23866;SDS011;12114;53.404;-1.502;2023-03-30T01:04:46;1.10;;;0.70;;
23866;SDS011;12114;53.404;-1.502;2023-03-30T01:07:36;1.00;;;0.70;;
23866;SDS011;12114;53.404;-1.502;2023-03-30T01:10:22;0.98;;;0.70;;
23866;SDS011;12114;53.404;-1.502;2023-03-30T01:13:06;2.13;;;0.90;;
23866;SDS011;12114;53.404;-1.502;2023-03-30T01:15:53;0.90;;;0.60;;
23866;SDS011;12114;53.404;-1.502;2023-03-30T01:34:18;1.20;;;0.70;;
23866;SDS011;12114;53.404;-1.502;2023-03-30T01:40:38;1.55;;;0.82;;
23866;SDS011;12114;53.404;-1.502;2023-03-30T01:46:35;1.52;;;0.80;;
23866;SDS011;12114;53.404;-1.502;2023-03-30T01:49:27;1.98;;;0.93;;
23866;SDS011;12114;53.404;-1.502;2023-03-30T01:55:52;4.10;;;1.08;;
23866;SDS011;12114;53.404;-1.502;2023-03-30T01:58:46;1.73;;;1.23;;
23866;SDS011;12114;53.404;-1.502;2023-03-30T02:01:36;2.13;;;1.50;;
23866;SDS011;12114;53.404;-1.502;2023-03-30T02:04:24;4.32;;;1.40;;
23866;SDS011;12114;53.404;-1.502;2023-03-30T02:07:12;2.53;;;1.40;;
23866;SDS011;12114;53.404;-1.502;2023-03-30T02:10:01;4.68;;;1.40;;
23866;SDS011;12114;53.404;-1.502;2023-03-30T02:12:48;6.13;;;1.73;;
23866;SDS011;12114;53.404;-1.502;2023-03-30T02:18:21;4.25;;;1.20;;
23866;SDS011;12114;53.404;-1.502;2023-03-30T02:21:05;3.53;;;1.30;;
23866;SDS011;12114;53.404;-1.502;2023-03-30T02:23:49;4.80;;;1.55;;
23866;SDS011;12114;53.404;-1.502;2023-03-30T02:26:37;4.82;;;1.30;;
23866;SDS011;12114;53.404;-1.502;2023-03-30T02:29:21;3.00;;;1.38;;
23866;SDS011;12114;53.404;-1.502;2023-03-30T02:32:08;4.93;;;1.33;;
23866;SDS011;12114;53.404;-1.502;2023-03-30T02:52:48;5.30;;;1.05;;
23866;SDS011;12114;53.404;-1.502;2023-03-30T02:55:37;6.22;;;1.13;;
23866;SDS011;12114;53.404;-1.502;2023-03-30T02:58:23;5.85;;;1.30;;
23866;SDS011;12114;53.404;-1.502;2023-03-30T03:04:09;7.57;;;1.10;;
23866;SDS011;12114;53.404;-1.502;2023-03-30T03:06:55;5.57;;;0.93;;
23866;SDS011;12114;53.404;-1.502;2023-03-30T03:09:39;4.55;;;0.82;;
23866;SDS011;12114;53.404;-1.502;2023-03-30T03:12:23;4.68;;;0.70;;
23866;SDS011;12114;53.404;-1.502;2023-03-30T03:15:08;3.93;;;0.67;;
23866;SDS011;12114;53.404;-1.502;2023-03-30T03:17:53;2.65;;;0.63;;
23866;SDS011;12114;53.404;-1.502;2023-03-30T03:20:38;2.75;;;0.57;;
23866;SDS011;12114;53.404;-1.502;2023-03-30T03:23:22;2.60;;;0.60;;
23866;SDS011;12114;53.404;-1.502;2023-03-30T03:26:07;3.55;;;0.70;;
23866;SDS011;12114;53.404;-1.502;2023-03-30T03:28:52;6.25;;;0.90;;
23866;SDS011;12114;53.404;-1.502;2023-03-30T03:31:36;2.30;;;0.70;;
23866;SDS011;12114;53.404;-1.502;2023-03-30T03:34:20;5.20;;;0.70;;
23866;SDS011;12114;53.404;-1.502;2023-03-30T03:37:04;1.92;;;0.55;;
23866;SDS011;12114;53.404;-1.502;2023-03-30T03:39:49;2.42;;;0.63;;
23866;SDS011;12114;53.404;-1.502;2023-03-30T03:42:34;2.58;;;0.40;;
23866;SDS011;12114;53.404;-1.502;2023-03-30T03:45:18;0.95;;;0.30;;
23866;SDS011;12114;53.404;-1.502;2023-03-30T03:48:02;2.45;;;0.35;;
23866;SDS011;12114;53.404;-1.502;2023-03-30T03:50:50;1.45;;;0.40;;
23866;SDS011;12114;53.404;-1.502;2023-03-30T03:53:39;4.32;;;0.50;;
23866;SDS011;12114;53.404;-1.502;2023-03-30T03:56:23;1.02;;;0.30;;
23866;SDS011;12114;53.404;-1.502;2023-03-30T03:59:08;1.00;;;0.50;;
23866;SDS011;12114;53.404;-1.502;2023-03-30T04:01:52;1.90;;;0.50;;
23866;SDS011;12114;53.404;-1.502;2023-03-30T04:04:36;1.05;;;0.30;;
23866;SDS011;12114;53.404;-1.502;2023-03-30T04:07:20;2.38;;;0.40;;
23866;SDS011;12114;53.404;-1.502;2023-03-30T04:10:04;2.70;;;0.93;;
23866;SDS011;12114;53.404;-1.502;2023-03-30T04:12:49;3.45;;;0.82;;
23866;SDS011;12114;53.404;-1.502;2023-03-30T04:15:33;4.28;;;1.10;;
23866;SDS011;12114;53.404;-1.502;2023-03-30T04:18:18;2.58;;;1.83;;
23866;SDS011;12114;53.404;-1.502;2023-03-30T04:23:49;1.73;;;0.60;;
23866;SDS011;12114;53.404;-1.502;2023-03-30T04:26:33;1.52;;;0.65;;
23866;SDS011;12114;53.404;-1.502;2023-03-30T04:29:18;1.60;;;0.80;;
23866;SDS011;12114;53.404;-1.502;2023-03-30T04:32:03;1.50;;;0.80;;
23866;SDS011;12114;53.404;-1.502;2023-03-30T04:34:47;2.50;;;0.80;;
23866;SDS011;12114;53.404;-1.502;2023-03-30T04:37:31;1.48;;;0.52;;
23866;SDS011;12114;53.404;-1.502;2023-03-30T04:40:16;2.30;;;0.80;;
23866;SDS011;12114;53.404;-1.502;2023-03-30T04:43:00;3.70;;;0.60;;
23866;SDS011;12114;53.404;-1.502;2023-03-30T04:45:50;2.28;;;0.43;;
23866;SDS011;12114;53.404;-1.502;2023-03-30T04:48:35;2.60;;;0.75;;
23866;SDS011;12114;53.404;-1.502;2023-03-30T04:51:20;2.22;;;0.50;;
23866;SDS011;12114;53.404;-1.502;2023-03-30T04:54:04;1.83;;;0.40;;
23866;SDS011;12114;53.404;-1.502;2023-03-30T04:56:48;1.30;;;0.30;;
23866;SDS011;12114;53.404;-1.502;2023-03-30T04:59:32;2.85;;;0.60;;
23866;SDS011;12114;53.404;-1.502;2023-03-30T05:02:16;1.88;;;0.60;;
23866;SDS011;12114;53.404;-1.502;2023-03-30T05:05:00;1.40;;;0.65;;
23866;SDS011;12114;53.404;-1.502;2023-03-30T05:07:44;1.20;;;0.60;;
23866;SDS011;12114;53.404;-1.502;2023-03-30T05:10:29;1.65;;;0.60;;
23866;SDS011;12114;53.404;-1.502;2023-03-30T05:13:13;1.20;;;0.50;;
23866;SDS011;12114;53.404;-1.502;2023-03-30T05:15:57;1.92;;;0.50;;
23866;SDS011;12114;53.404;-1.502;2023-03-30T05:18:42;1.15;;;0.50;;
23866;SDS011;12114;53.404;-1.502;2023-03-30T05:21:26;2.23;;;0.50;;
23866;SDS011;12114;53.404;-1.502;2023-03-30T05:24:11;2.53;;;0.80;;
23866;SDS011;12114;53.404;-1.502;2023-03-30T05:26:56;2.10;;;1.42;;
23866;SDS011;12114;53.404;-1.502;2023-03-30T05:29:40;2.10;;;1.55;;
23866;SDS011;12114;53.404;-1.502;2023-03-30T05:32:24;3.85;;;2.08;;
23866;SDS011;12114;53.404;-1.502;2023-03-30T05:35:08;2.92;;;2.33;;
23866;SDS011;12114;53.404;-1.502;2023-03-30T05:37:52;3.22;;;2.20;;
23866;SDS011;12114;53.404;-1.502;2023-03-30T05:40:38;4.80;;;2.08;;
23866;SDS011;12114;53.404;-1.502;2023-03-30T05:43:21;3.13;;;1.77;;
23866;SDS011;12114;53.404;-1.502;2023-03-30T05:46:06;4.22;;;3.15;;
23866;SDS011;12114;53.404;-1.502;2023-03-30T05:48:50;2.20;;;1.48;;
23866;SDS011;12114;53.404;-1.502;2023-03-30T05:51:34;2.00;;;1.33;;
23866;SDS011;12114;53.404;-1.502;2023-03-30T05:54:17;2.65;;;1.20;;
23866;SDS011;12114;53.404;-1.502;2023-03-30T05:57:01;2.55;;;1.45;;
23866;SDS011;12114;53.404;-1.502;2023-03-30T05:59:46;1.63;;;1.03;;
23866;SDS011;12114;53.404;-1.502;2023-03-30T06:02:31;4.13;;;1.08;;
23866;SDS011;12114;53.404;-1.502;2023-03-30T06:05:14;4.32;;;2.08;;
23866;SDS011;12114;53.404;-1.502;2023-03-30T06:07:59;3.15;;;1.13;;
23866;SDS011;12114;53.404;-1.502;2023-03-30T06:10:50;5.43;;;1.02;;
23866;SDS011;12114;53.404;-1.502;2023-03-30T06:13:35;3.13;;;1.20;;
23866;SDS011;12114;53.404;-1.502;2023-03-30T06:16:19;4.75;;;1.10;;
23866;SDS011;12114;53.404;-1.502;2023-03-30T06:19:04;7.38;;;1.45;;
23866;SDS011;12114;53.404;-1.502;2023-03-30T06:21:48;3.25;;;1.30;;
23866;SDS011;12114;53.404;-1.502;2023-03-30T06:24:32;6.75;;;1.80;;
23866;SDS011;12114;53.404;-1.502;2023-03-30T06:27:15;8.82;;;2.58;;
23866;SDS011;12114;53.404;-1.502;2023-03-30T06:30:00;4.43;;;1.95;;
23866;SDS011;12114;53.404;-1.502;2023-03-30T06:32:45;3.38;;;1.25;;
23866;SDS011;12114;53.404;-1.502;2023-03-30T06:35:28;6.50;;;2.15;;
23866;SDS011;12114;53.404;-1.502;2023-03-30T06:38:13;3.83;;;2.05;;
23866;SDS011;12114;53.404;-1.502;2023-03-30T06:41:02;5.13;;;1.98;;
23866;SDS011;12114;53.404;-1.502;2023-03-30T06:43:47;6.72;;;2.95;;
23866;SDS011;12114;53.404;-1.502;2023-03-30T06:46:31;7.68;;;2.47;;
23866;SDS011;12114;53.404;-1.502;2023-03-30T06:49:16;5.22;;;2.65;;
23866;SDS011;12114;53.404;-1.502;2023-03-30T06:52:00;6.20;;;2.60;;
23866;SDS011;12114;53.404;-1.502;2023-03-30T06:54:44;6.88;;;2.50;;
23866;SDS011;12114;53.404;-1.502;2023-03-30T06:57:28;5.30;;;2.28;;
23866;SDS011;12114;53.404;-1.502;2023-03-30T07:00:13;4.35;;;2.05;;
23866;SDS011;12114;53.404;-1.502;2023-03-30T07:02:57;5.32;;;2.20;;
23866;SDS011;12114;53.404;-1.502;2023-03-30T07:05:41;6.22;;;2.53;;
23866;SDS011;12114;53.404;-1.502;2023-03-30T07:08:25;4.72;;;2.55;;
23866;SDS011;12114;53.404;-1.502;2023-03-30T07:11:09;4.03;;;2.10;;
23866;SDS011;12114;53.404;-1.502;2023-03-30T07:13:54;4.93;;;2.20;;
23866;SDS011;12114;53.404;-1.502;2023-03-30T07:16:40;4.82;;;2.17;;
23866;SDS011;12114;53.404;-1.502;2023-03-30T07:19:24;6.55;;;2.50;;
23866;SDS011;12114;53.404;-1.502;2023-03-30T07:22:08;7.13;;;2.25;;
23866;SDS011;12114;53.404;-1.502;2023-03-30T07:24:52;7.82;;;2.45;;
23866;SDS011;12114;53.404;-1.502;2023-03-30T07:27:37;11.20;;;3.50;;
23866;SDS011;12114;53.404;-1.502;2023-03-30T07:30:21;12.05;;;4.00;;
23866;SDS011;12114;53.404;-1.502;2023-03-30T07:33:05;11.32;;;4.00;;
23866;SDS011;12114;53.404;-1.502;2023-03-30T07:35:49;13.25;;;4.05;;
23866;SDS011;12114;53.404;-1.502;2023-03-30T07:38:33;13.40;;;4.32;;
23866;SDS011;12114;53.404;-1.502;2023-03-30T07:41:18;13.48;;;3.78;;
23866;SDS011;12114;53.404;-1.502;2023-03-30T07:44:02;15.13;;;3.28;;
23866;SDS011;12114;53.404;-1.502;2023-03-30T07:46:46;16.85;;;3.17;;
23866;SDS011;12114;53.404;-1.502;2023-03-30T07:49:30;14.32;;;3.28;;
23866;SDS011;12114;53.404;-1.502;2023-03-30T07:52:14;12.23;;;2.28;;
23866;SDS011;12114;53.404;-1.502;2023-03-30T07:54:59;14.85;;;3.05;;
23866;SDS011;12114;53.404;-1.502;2023-03-30T07:57:43;11.15;;;2.70;;
23866;SDS011;12114;53.404;-1.502;2023-03-30T08:00:27;20.30;;;3.40;;
23866;SDS011;12114;53.404;-1.502;2023-03-30T08:03:11;13.43;;;2.90;;
23866;SDS011;12114;53.404;-1.502;2023-03-30T08:05:56;15.25;;;2.95;;
23866;SDS011;12114;53.404;-1.502;2023-03-30T08:08:43;16.63;;;3.00;;
23866;SDS011;12114;53.404;-1.502;2023-03-30T08:11:27;17.08;;;2.95;;
23866;SDS011;12114;53.404;-1.502;2023-03-30T08:14:11;13.63;;;2.53;;
23866;SDS011;12114;53.404;-1.502;2023-03-30T08:16:55;17.52;;;3.05;;
23866;SDS011;12114;53.404;-1.502;2023-03-30T08:19:39;24.08;;;3.10;;
23866;SDS011;12114;53.404;-1.502;2023-03-30T08:22:23;18.50;;;3.30;;
23866;SDS011;12114;53.404;-1.502;2023-03-30T08:25:08;10.88;;;2.47;;
23866;SDS011;12114;53.404;-1.502;2023-03-30T08:27:52;14.43;;;3.13;;
23866;SDS011;12114;53.404;-1.502;2023-03-30T08:30:36;18.77;;;3.28;;
23866;SDS011;12114;53.404;-1.502;2023-03-30T08:33:21;16.60;;;2.78;;
23866;SDS011;12114;53.404;-1.502;2023-03-30T08:36:07;15.13;;;3.30;;
23866;SDS011;12114;53.404;-1.502;2023-03-30T08:38:52;14.80;;;2.83;;
23866;SDS011;12114;53.404;-1.502;2023-03-30T08:44:40;17.85;;;3.17;;
23866;SDS011;12114;53.404;-1.502;2023-03-30T08:47:37;16.60;;;2.75;;
23866;SDS011;12114;53.404;-1.502;2023-03-30T08:50:29;10.60;;;2.17;;
23866;SDS011;12114;53.404;-1.502;2023-03-30T08:53:19;10.70;;;1.70;;
23866;SDS011;12114;53.404;-1.502;2023-03-30T08:56:15;9.75;;;1.50;;
23866;SDS011;12114;53.404;-1.502;2023-03-30T09:02:16;13.35;;;2.03;;
23866;SDS011;12114;53.404;-1.502;2023-03-30T09:08:13;12.60;;;2.20;;
23866;SDS011;12114;53.404;-1.502;2023-03-30T09:11:09;10.20;;;2.58;;
23866;SDS011;12114;53.404;-1.502;2023-03-30T09:13:56;11.15;;;2.00;;
23866;SDS011;12114;53.404;-1.502;2023-03-30T09:16:51;10.15;;;2.03;;
23866;SDS011;12114;53.404;-1.502;2023-03-30T09:19:46;10.77;;;2.15;;
23866;SDS011;12114;53.404;-1.502;2023-03-30T09:22:39;12.50;;;2.50;;
23866;SDS011;12114;53.404;-1.502;2023-03-30T09:25:27;12.23;;;2.92;;
23866;SDS011;12114;53.404;-1.502;2023-03-30T09:37:32;8.38;;;1.80;;
23866;SDS011;12114;53.404;-1.502;2023-03-30T09:40:27;9.32;;;1.38;;
23866;SDS011;12114;53.404;-1.502;2023-03-30T09:43:33;8.27;;;1.85;;
23866;SDS011;12114;53.404;-1.502;2023-03-30T09:46:21;8.10;;;1.45;;
23866;SDS011;12114;53.404;-1.502;2023-03-30T09:49:12;6.93;;;1.52;;
23866;SDS011;12114;53.404;-1.502;2023-03-30T09:52:02;8.02;;;1.35;;
23866;SDS011;12114;53.404;-1.502;2023-03-30T09:54:49;9.93;;;1.42;;
23866;SDS011;12114;53.404;-1.502;2023-03-30T09:57:33;5.55;;;1.08;;
23866;SDS011;12114;53.404;-1.502;2023-03-30T10:00:28;4.38;;;0.82;;
23866;SDS011;12114;53.404;-1.502;2023-03-30T10:03:18;4.22;;;0.90;;
23866;SDS011;12114;53.404;-1.502;2023-03-30T10:06:06;6.15;;;0.90;;
23866;SDS011;12114;53.404;-1.502;2023-03-30T10:08:53;4.68;;;1.02;;
23866;SDS011;12114;53.404;-1.502;2023-03-30T10:11:40;4.65;;;1.13;;
23866;SDS011;12114;53.404;-1.502;2023-03-30T10:14:35;8.35;;;1.58;;
23866;SDS011;12114;53.404;-1.502;2023-03-30T10:17:21;5.63;;;1.38;;
23866;SDS011;12114;53.404;-1.502;2023-03-30T10:26:18;6.10;;;1.27;;
23866;SDS011;12114;53.404;-1.502;2023-03-30T10:29:04;6.18;;;1.50;;
23866;SDS011;12114;53.404;-1.502;2023-03-30T10:31:59;5.80;;;1.17;;
23866;SDS011;12114;53.404;-1.502;2023-03-30T10:34:50;5.30;;;0.90;;
23866;SDS011;12114;53.404;-1.502;2023-03-30T10:37:38;3.13;;;0.90;;
23866;SDS011;12114;53.404;-1.502;2023-03-30T10:40:38;7.32;;;1.00;;
23866;SDS011;12114;53.404;-1.502;2023-03-30T10:43:26;6.32;;;1.45;;
23866;SDS011;12114;53.404;-1.502;2023-03-30T10:46:15;4.72;;;0.98;;
23866;SDS011;12114;53.404;-1.502;2023-03-30T10:49:14;5.60;;;1.40;;
23866;SDS011;12114;53.404;-1.502;2023-03-30T10:55:20;10.60;;;1.75;;
23866;SDS011;12114;53.404;-1.502;2023-03-30T11:04:00;8.32;;;1.80;;
23866;SDS011;12114;53.404;-1.502;2023-03-30T11:06:48;13.25;;;2.20;;
23866;SDS011;12114;53.404;-1.502;2023-03-30T11:09:37;9.65;;;2.33;;
23866;SDS011;12114;53.404;-1.502;2023-03-30T11:12:25;10.50;;;2.15;;
23866;SDS011;12114;53.404;-1.502;2023-03-30T11:15:18;13.20;;;1.80;;
23866;SDS011;12114;53.404;-1.502;2023-03-30T11:18:10;9.30;;;1.80;;
23866;SDS011;12114;53.404;-1.502;2023-03-30T11:24:04;10.45;;;2.03;;
23866;SDS011;12114;53.404;-1.502;2023-03-30T11:29:45;12.20;;;1.90;;
23866;SDS011;12114;53.404;-1.502;2023-03-30T11:32:45;10.48;;;2.10;;
23866;SDS011;12114;53.404;-1.502;2023-03-30T11:35:40;10.50;;;1.83;;
23866;SDS011;12114;53.404;-1.502;2023-03-30T11:38:40;14.45;;;2.53;;
23866;SDS011;12114;53.404;-1.502;2023-03-30T11:41:37;8.55;;;2.38;;
23866;SDS011;12114;53.404;-1.502;2023-03-30T11:44:25;7.70;;;1.80;;
23866;SDS011;12114;53.404;-1.502;2023-03-30T11:47:21;10.55;;;2.05;;
23866;SDS011;12114;53.404;-1.502;2023-03-30T11:50:25;10.25;;;1.45;;
23866;SDS011;12114;53.404;-1.502;2023-03-30T11:56:42;5.32;;;1.00;;
23866;SDS011;12114;53.404;-1.502;2023-03-30T11:59:40;4.80;;;1.10;;
23866;SDS011;12114;53.404;-1.502;2023-03-30T12:09:31;5.57;;;1.33;;
23866;SDS011;12114;53.404;-1.502;2023-03-30T12:12:13;5.00;;;1.83;;
23866;SDS011;12114;53.404;-1.502;2023-03-30T12:18:28;6.50;;;1.50;;
23866;SDS011;12114;53.404;-1.502;2023-03-30T12:21:32;8.10;;;2.13;;
23866;SDS011;12114;53.404;-1.502;2023-03-30T12:27:18;7.55;;;1.52;;
23866;SDS011;12114;53.404;-1.502;2023-03-30T12:33:02;4.85;;;1.35;;
23866;SDS011;12114;53.404;-1.502;2023-03-30T12:35:57;4.90;;;1.40;;
23866;SDS011;12114;53.404;-1.502;2023-03-30T12:38:46;4.18;;;1.38;;
23866;SDS011;12114;53.404;-1.502;2023-03-30T13:05:58;6.28;;;1.05;;
23866;SDS011;12114;53.404;-1.502;2023-03-30T13:08:44;6.63;;;1.02;;
23866;SDS011;12114;53.404;-1.502;2023-03-30T13:11:41;6.38;;;1.35;;
23866;SDS011;12114;53.404;-1.502;2023-03-30T13:17:22;7.03;;;1.45;;
23866;SDS011;12114;53.404;-1.502;2023-03-30T13:23:02;6.13;;;1.27;;
23866;SDS011;12114;53.404;-1.502;2023-03-30T13:47:05;6.30;;;1.30;;
23866;SDS011;12114;53.404;-1.502;2023-03-30T13:50:17;7.70;;;1.83;;
23866;SDS011;12114;53.404;-1.502;2023-03-30T13:53:07;5.32;;;1.00;;
23866;SDS011;12114;53.404;-1.502;2023-03-30T13:55:53;6.68;;;1.17;;
23866;SDS011;12114;53.404;-1.502;2023-03-30T13:58:37;5.07;;;1.17;;
23866;SDS011;12114;53.404;-1.502;2023-03-30T14:01:25;8.07;;;1.10;;
23866;SDS011;12114;53.404;-1.502;2023-03-30T14:04:10;6.07;;;1.30;;
23866;SDS011;12114;53.404;-1.502;2023-03-30T14:06:56;6.85;;;1.60;;
23866;SDS011;12114;53.404;-1.502;2023-03-30T14:09:41;11.55;;;2.00;;
23866;SDS011;12114;53.404;-1.502;2023-03-30T14:12:25;6.22;;;1.90;;
23866;SDS011;12114;53.404;-1.502;2023-03-30T14:15:43;10.18;;;2.58;;
23866;SDS011;12114;53.404;-1.502;2023-03-30T14:18:22;15.63;;;2.90;;
23866;SDS011;12114;53.404;-1.502;2023-03-30T14:21:09;8.23;;;2.20;;
23866;SDS011;12114;53.404;-1.502;2023-03-30T14:23:59;10.70;;;2.28;;
23866;SDS011;12114;53.404;-1.502;2023-03-30T14:26:45;12.05;;;2.20;;
23866;SDS011;12114;53.404;-1.502;2023-03-30T14:29:30;12.77;;;2.65;;
23866;SDS011;12114;53.404;-1.502;2023-03-30T14:32:15;14.55;;;2.20;;
23866;SDS011;12114;53.404;-1.502;2023-03-30T14:35:04;11.57;;;2.53;;
23866;SDS011;12114;53.404;-1.502;2023-03-30T14:37:49;12.40;;;2.22;;
23866;SDS011;12114;53.404;-1.502;2023-03-30T14:40:36;12.40;;;2.28;;
23866;SDS011;12114;53.404;-1.502;2023-03-30T14:43:22;11.95;;;2.80;;
23866;SDS011;12114;53.404;-1.502;2023-03-30T14:46:10;11.77;;;2.67;;
23866;SDS011;12114;53.404;-1.502;2023-03-30T14:48:55;11.93;;;2.58;;
23866;SDS011;12114;53.404;-1.502;2023-03-30T14:51:41;9.68;;;2.10;;
23866;SDS011;12114;53.404;-1.502;2023-03-30T14:54:26;12.23;;;2.42;;
23866;SDS011;12114;53.404;-1.502;2023-03-30T14:57:11;11.90;;;2.30;;
23866;SDS011;12114;53.404;-1.502;2023-03-30T14:59:57;13.63;;;2.65;;
23866;SDS011;12114;53.404;-1.502;2023-03-30T15:02:44;14.27;;;2.67;;
23866;SDS011;12114;53.404;-1.502;2023-03-30T15:05:31;12.75;;;2.25;;
23866;SDS011;12114;53.404;-1.502;2023-03-30T15:08:20;11.52;;;2.05;;
23866;SDS011;12114;53.404;-1.502;2023-03-30T15:11:14;10.27;;;1.90;;
23866;SDS011;12114;53.404;-1.502;2023-03-30T15:14:07;10.38;;;1.77;;
23866;SDS011;12114;53.404;-1.502;2023-03-30T15:16:56;14.73;;;1.90;;
23866;SDS011;12114;53.404;-1.502;2023-03-30T15:19:41;11.48;;;1.83;;
23866;SDS011;12114;53.404;-1.502;2023-03-30T15:22:29;10.63;;;2.25;;
23866;SDS011;12114;53.404;-1.502;2023-03-30T15:25:22;8.68;;;1.98;;
23866;SDS011;12114;53.404;-1.502;2023-03-30T15:28:12;10.32;;;1.75;;
23866;SDS011;12114;53.404;-1.502;2023-03-30T15:31:01;15.02;;;2.35;;
23866;SDS011;12114;53.404;-1.502;2023-03-30T15:33:48;10.20;;;2.30;;
23866;SDS011;12114;53.404;-1.502;2023-03-30T15:36:38;10.63;;;2.15;;
23866;SDS011;12114;53.404;-1.502;2023-03-30T15:39:24;12.90;;;1.98;;
23866;SDS011;12114;53.404;-1.502;2023-03-30T15:42:22;11.32;;;2.33;;
23866;SDS011;12114;53.404;-1.502;2023-03-30T15:45:14;11.75;;;2.88;;
23866;SDS011;12114;53.404;-1.502;2023-03-30T15:47:58;11.32;;;2.20;;
23866;SDS011;12114;53.404;-1.502;2023-03-30T15:50:43;10.38;;;2.00;;
23866;SDS011;12114;53.404;-1.502;2023-03-30T15:53:39;7.80;;;1.60;;
23866;SDS011;12114;53.404;-1.502;2023-03-30T15:56:26;8.68;;;1.50;;
23866;SDS011;12114;53.404;-1.502;2023-03-30T15:59:17;10.07;;;1.45;;
23866;SDS011;12114;53.404;-1.502;2023-03-30T16:02:13;8.38;;;1.13;;
23866;SDS011;12114;53.404;-1.502;2023-03-30T16:05:00;4.85;;;1.25;;
23866;SDS011;12114;53.404;-1.502;2023-03-30T16:07:45;7.25;;;1.50;;
23866;SDS011;12114;53.404;-1.502;2023-03-30T16:10:30;8.15;;;1.40;;
23866;SDS011;12114;53.404;-1.502;2023-03-30T16:13:16;8.18;;;1.52;;
23866;SDS011;12114;53.404;-1.502;2023-03-30T16:16:00;6.95;;;1.30;;
23866;SDS011;12114;53.404;-1.502;2023-03-30T16:21:30;7.70;;;1.50;;
23866;SDS011;12114;53.404;-1.502;2023-03-30T16:24:14;10.55;;;2.15;;
23866;SDS011;12114;53.404;-1.502;2023-03-30T16:26:58;14.35;;;2.45;;
23866;SDS011;12114;53.404;-1.502;2023-03-30T16:29:42;12.02;;;3.03;;
23866;SDS011;12114;53.404;-1.502;2023-03-30T16:32:26;16.15;;;2.90;;
23866;SDS011;12114;53.404;-1.502;2023-03-30T16:35:10;13.77;;;2.97;;
23866;SDS011;12114;53.404;-1.502;2023-03-30T16:37:55;13.10;;;2.75;;
23866;SDS011;12114;53.404;-1.502;2023-03-30T16:40:39;9.85;;;2.67;;
23866;SDS011;12114;53.404;-1.502;2023-03-30T16:43:26;10.00;;;2.30;;
23866;SDS011;12114;53.404;-1.502;2023-03-30T16:46:14;11.23;;;1.92;;
23866;SDS011;12114;53.404;-1.502;2023-03-30T16:48:59;15.27;;;2.83;;
23866;SDS011;12114;53.404;-1.502;2023-03-30T16:51:44;13.00;;;2.20;;
23866;SDS011;12114;53.404;-1.502;2023-03-30T16:54:28;15.98;;;3.83;;
23866;SDS011;12114;53.404;-1.502;2023-03-30T16:57:13;16.33;;;4.63;;
23866;SDS011;12114;53.404;-1.502;2023-03-30T16:59:57;13.32;;;3.65;;
23866;SDS011;12114;53.404;-1.502;2023-03-30T17:02:41;8.38;;;2.70;;
23866;SDS011;12114;53.404;-1.502;2023-03-30T17:05:25;12.55;;;2.80;;
23866;SDS011;12114;53.404;-1.502;2023-03-30T17:08:15;13.27;;;2.92;;
23866;SDS011;12114;53.404;-1.502;2023-03-30T17:11:03;13.95;;;2.92;;
23866;SDS011;12114;53.404;-1.502;2023-03-30T17:13:50;13.02;;;2.65;;
23866;SDS011;12114;53.404;-1.502;2023-03-30T17:16:34;15.80;;;2.55;;
23866;SDS011;12114;53.404;-1.502;2023-03-30T17:19:19;13.97;;;2.67;;
23866;SDS011;12114;53.404;-1.502;2023-03-30T17:22:03;11.93;;;2.13;;
23866;SDS011;12114;53.404;-1.502;2023-03-30T17:24:47;9.98;;;2.38;;
23866;SDS011;12114;53.404;-1.502;2023-03-30T17:27:30;13.60;;;2.53;;
23866;SDS011;12114;53.404;-1.502;2023-03-30T17:33:07;16.60;;;2.97;;
23866;SDS011;12114;53.404;-1.502;2023-03-30T17:36:00;13.68;;;2.55;;
23866;SDS011;12114;53.404;-1.502;2023-03-30T17:38:46;16.45;;;3.13;;
23866;SDS011;12114;53.404;-1.502;2023-03-30T17:41:32;13.73;;;2.47;;
23866;SDS011;12114;53.404;-1.502;2023-03-30T17:44:20;13.68;;;2.35;;
23866;SDS011;12114;53.404;-1.502;2023-03-30T17:47:04;14.20;;;2.85;;
23866;SDS011;12114;53.404;-1.502;2023-03-30T17:49:48;12.90;;;2.60;;
23866;SDS011;12114;53.404;-1.502;2023-03-30T17:52:32;18.85;;;2.63;;
23866;SDS011;12114;53.404;-1.502;2023-03-30T17:55:17;8.10;;;2.00;;
23866;SDS011;12114;53.404;-1.502;2023-03-30T17:58:02;9.93;;;2.15;;
23866;SDS011;12114;53.404;-1.502;2023-03-30T18:00:46;11.23;;;2.47;;
23866;SDS011;12114;53.404;-1.502;2023-03-30T18:03:31;9.90;;;2.40;;
23866;SDS011;12114;53.404;-1.502;2023-03-30T18:06:16;10.53;;;2.37;;
23866;SDS011;12114;53.404;-1.502;2023-03-30T18:09:00;12.90;;;2.35;;
23866;SDS011;12114;53.404;-1.502;2023-03-30T18:11:44;11.52;;;2.50;;
23866;SDS011;12114;53.404;-1.502;2023-03-30T18:14:28;10.52;;;2.53;;
23866;SDS011;12114;53.404;-1.502;2023-03-30T18:17:12;11.70;;;2.22;;
23866;SDS011;12114;53.404;-1.502;2023-03-30T18:19:56;9.88;;;2.38;;
23866;SDS011;12114;53.404;-1.502;2023-03-30T18:22:40;11.48;;;2.70;;
23866;SDS011;12114;53.404;-1.502;2023-03-30T18:25:24;13.10;;;3.83;;
23866;SDS011;12114;53.404;-1.502;2023-03-30T18:28:13;12.52;;;2.72;;
23866;SDS011;12114;53.404;-1.502;2023-03-30T18:30:59;10.43;;;2.58;;
23866;SDS011;12114;53.404;-1.502;2023-03-30T18:33:44;15.32;;;2.60;;
23866;SDS011;12114;53.404;-1.502;2023-03-30T18:36:28;9.40;;;2.28;;
23866;SDS011;12114;53.404;-1.502;2023-03-30T18:39:16;12.07;;;2.60;;
23866;SDS011;12114;53.404;-1.502;2023-03-30T18:42:02;9.93;;;2.78;;
23866;SDS011;12114;53.404;-1.502;2023-03-30T18:44:46;10.77;;;3.42;;
23866;SDS011;12114;53.404;-1.502;2023-03-30T18:47:30;11.80;;;2.75;;
23866;SDS011;12114;53.404;-1.502;2023-03-30T18:50:22;14.27;;;3.10;;
23866;SDS011;12114;53.404;-1.502;2023-03-30T18:53:13;14.43;;;3.28;;
23866;SDS011;12114;53.404;-1.502;2023-03-30T18:55:58;10.07;;;2.97;;
23866;SDS011;12114;53.404;-1.502;2023-03-30T18:58:44;13.98;;;3.17;;
23866;SDS011;12114;53.404;-1.502;2023-03-30T19:01:28;13.50;;;2.97;;
23866;SDS011;12114;53.404;-1.502;2023-03-30T19:04:13;10.32;;;2.35;;
23866;SDS011;12114;53.404;-1.502;2023-03-30T19:06:57;9.15;;;2.88;;
23866;SDS011;12114;53.404;-1.502;2023-03-30T19:09:42;11.55;;;2.90;;
23866;SDS011;12114;53.404;-1.502;2023-03-30T19:15:15;19.88;;;9.93;;
23866;SDS011;12114;53.404;-1.502;2023-03-30T19:18:03;61.00;;;34.60;;
23866;SDS011;12114;53.404;-1.502;2023-03-30T19:20:48;40.47;;;21.47;;